Time;durP1;ratioP1;P1;durP2;ratioP2;P2;SDS_P1;SDS_P2;PMS_P1;PMS_P2;Temp;Humidity;BMP_temperature;BMP_pressure;BME280_temperature;BME280_humidity;BME280_pressure;Samples;Min_cycle;Max_cycle;Signal;HPM_P1;HPM_P2
2022/10/17 00:00:34;;;;;;;12.18;6.15;;;;;;;13.69;59.03;101609.00;4915081;29;20059;-69
2022/10/17 00:03:01;;;;;;;8.13;5.03;;;;;;;13.71;59.13;101609.69;4915015;29;20402;-69
2022/10/17 00:05:28;;;;;;;12.60;5.65;;;;;;;13.61;59.60;101614.34;4915000;29;20044;-69
2022/10/17 00:07:54;;;;;;;9.88;5.65;;;;;;;13.64;59.65;101603.25;4915423;29;20060;-70
2022/10/17 00:10:22;;;;;;;8.80;5.50;;;;;;;13.71;59.62;101620.47;4914588;29;20048;-69
2022/10/17 00:12:50;;;;;;;8.75;5.40;;;;;;;13.67;59.61;101616.41;4915303;29;20511;-70
2022/10/17 00:15:19;;;;;;;14.05;5.95;;;;;;;13.55;60.28;101610.41;4915139;29;20059;-69
2022/10/17 00:17:45;;;;;;;10.85;5.70;;;;;;;13.46;60.73;101605.16;4915119;29;20051;-70
2022/10/17 00:20:12;;;;;;;9.77;5.60;;;;;;;13.40;61.05;101603.09;4915041;29;20056;-70
2022/10/17 00:22:38;;;;;;;10.98;5.80;;;;;;;13.47;61.10;101601.44;4914129;29;20059;-71
2022/10/17 00:25:05;;;;;;;10.23;5.65;;;;;;;13.51;61.00;101600.13;4915050;29;20099;-70
2022/10/17 00:27:36;;;;;;;13.52;5.95;;;;;;;13.49;60.84;101613.78;4915354;29;20055;-68
2022/10/17 00:30:03;;;;;;;8.23;5.15;;;;;;;13.49;60.98;101611.06;4915145;29;20056;-70
2022/10/17 00:32:30;;;;;;;10.48;5.25;;;;;;;13.55;60.68;101614.97;4914824;29;20052;-69
2022/10/17 00:34:57;;;;;;;9.60;5.45;;;;;;;13.51;61.17;101602.81;4915285;29;20067;-69
2022/10/17 00:37:24;;;;;;;13.68;5.93;;;;;;;13.51;61.10;101609.06;4915015;29;20051;-70
2022/10/17 00:39:50;;;;;;;8.40;5.03;;;;;;;13.54;61.11;101600.66;4915136;29;20055;-70
2022/10/17 00:42:17;;;;;;;9.90;5.32;;;;;;;13.53;61.18;101598.97;4914973;29;20059;-69
2022/10/17 00:44:46;;;;;;;12.07;5.88;;;;;;;13.48;61.79;101608.53;4914212;29;20059;-70
2022/10/17 00:47:18;;;;;;;8.43;5.57;;;;;;;13.52;61.36;101605.34;4914788;29;20056;-69
2022/10/17 00:49:45;;;;;;;13.23;5.50;;;;;;;13.53;61.35;101604.38;4915092;29;20052;-69
2022/10/17 00:52:16;;;;;;;8.38;5.40;;;;;;;13.52;61.45;101605.34;4913939;29;20052;-70
2022/10/17 00:54:44;;;;;;;;;;;;;;;13.58;61.54;101607.41;4914531;29;20442;-69
2022/10/17 00:57:11;;;;;;;8.25;5.68;;;;;;;13.66;61.44;101617.41;4915049;29;19929;-70
2022/10/17 00:59:40;;;;;;;6.45;5.00;;;;;;;13.70;61.39;101624.19;4890006;29;456538;-70
2022/10/17 01:02:13;;;;;;;10.50;5.28;;;;;;;13.61;61.90;101614.34;4907486;29;20052;-69
2022/10/17 01:04:46;;;;;;;8.27;5.25;;;;;;;13.71;61.66;101623.19;4914987;29;20044;-69
2022/10/17 01:07:12;;;;;;;8.98;5.78;;;;;;;13.61;62.00;101608.94;4914584;29;20052;-69
2022/10/17 01:09:41;;;;;;;10.13;5.40;;;;;;;13.58;62.26;101610.09;4915372;29;20044;-69
2022/10/17 01:12:17;;;;;;;9.63;5.40;;;;;;;13.46;62.59;101594.38;4914765;29;20060;-70
2022/10/17 01:14:57;;;;;;;10.00;5.28;;;;;;;13.50;62.64;101606.53;4915546;29;20480;-69
2022/10/17 01:17:42;;;;;;;6.80;5.15;;;;;;;13.38;62.88;101607.78;4914388;29;20048;-69
2022/10/17 01:20:42;;;;;;;9.52;5.28;;;;;;;13.40;62.97;101592.31;4914576;29;20056;-69
2022/10/17 01:23:36;;;;;;;15.70;6.70;;;;;;;13.31;63.21;101592.22;4915360;29;20420;-70
2022/10/17 01:26:21;;;;;;;12.18;5.75;;;;;;;13.41;62.78;101596.69;4914248;29;20063;-68
2022/10/17 01:28:56;;;;;;;10.27;5.03;;;;;;;13.21;63.34;101599.56;4914387;29;20048;-70
2022/10/17 01:31:30;;;;;;;14.45;5.82;;;;;;;13.22;63.52;101593.19;4915232;29;20047;-69
2022/10/17 01:34:20;;;;;;;14.27;5.85;;;;;;;13.08;63.97;101588.34;4914216;29;20044;-69
2022/10/17 01:36:50;;;;;;;12.65;5.97;;;;;;;13.05;64.42;101580.59;4915118;29;20086;-69
2022/10/17 01:39:47;;;;;;;16.42;5.53;;;;;;;13.15;64.14;101581.34;4914586;29;20052;-70
2022/10/17 01:42:39;;;;;;;12.63;6.03;;;;;;;13.13;64.03;101588.72;4914774;29;20481;-70
2022/10/17 01:45:25;;;;;;;;;;;;;;;13.07;64.57;101578.56;4914104;29;20390;-70
2022/10/17 01:47:54;;;;;;;11.90;5.80;;;;;;;13.05;64.48;101577.88;4914605;29;19923;-70
2022/10/17 01:50:47;;;;;;;13.57;5.80;;;;;;;13.03;64.83;101574.50;4914717;29;20047;-69
2022/10/17 01:53:21;;;;;;;9.00;5.68;;;;;;;12.94;65.68;101578.09;4903782;29;20059;-70
2022/10/17 01:55:50;;;;;;;12.10;5.40;;;;;;;13.08;65.09;101581.13;4913938;29;20048;-70
2022/10/17 01:58:26;;;;;;;12.77;5.55;;;;;;;13.02;65.19;101578.19;4914230;29;20048;-70
2022/10/17 02:00:55;;;;;;;13.98;6.25;;;;;;;13.15;64.83;101575.94;4914011;29;20047;-70
2022/10/17 02:03:24;;;;;;;7.90;4.95;;;;;;;13.24;64.54;101584.94;4914005;29;20055;-69
2022/10/17 02:05:51;;;;;;;14.30;5.35;;;;;;;13.13;64.96;101579.78;4914656;29;20048;-69
2022/10/17 02:08:29;;;;;;;11.40;5.45;;;;;;;13.06;65.32;101583.09;4914439;29;20048;-70
2022/10/17 02:11:04;;;;;;;9.52;5.50;;;;;;;13.13;65.29;101575.25;4913693;29;20115;-69
2022/10/17 02:13:48;;;;;;;8.50;5.38;;;;;;;13.02;65.54;101581.72;4914298;29;20070;-69
2022/10/17 02:16:24;;;;;;;8.52;5.63;;;;;;;13.03;65.80;101585.25;4913810;29;20039;-69
2022/10/17 02:19:02;;;;;;;11.35;5.72;;;;;;;13.01;66.32;101581.91;4914290;29;20048;-69
2022/10/17 02:21:50;;;;;;;10.15;5.32;;;;;;;13.08;65.96;101574.88;4913734;29;20052;-69
2022/10/17 02:24:34;;;;;;;10.48;5.63;;;;;;;13.02;66.19;101575.50;4913440;29;20040;-69
2022/10/17 02:27:07;;;;;;;11.60;5.30;;;;;;;12.91;66.82;101573.06;4913999;29;20420;-70
2022/10/17 02:29:42;;;;;;;10.90;6.03;;;;;;;13.04;66.66;101574.34;4913328;29;20059;-69
2022/10/17 02:32:16;;;;;;;6.82;5.32;;;;;;;13.06;66.63;101569.63;4914306;29;20048;-69
2022/10/17 02:34:48;;;;;;;14.13;5.05;;;;;;;13.01;66.71;101571.13;4913415;29;20048;-69
2022/10/17 02:37:20;;;;;;;7.32;5.40;;;;;;;13.07;66.86;101573.16;4913785;29;20059;-70
2022/10/17 02:39:49;;;;;;;7.63;5.20;;;;;;;13.11;66.60;101571.84;4914298;29;20048;-69
2022/10/17 02:42:17;;;;;;;7.88;5.68;;;;;;;13.07;66.61;101574.00;4913390;29;20128;-68
2022/10/17 02:44:45;;;;;;;6.80;5.43;;;;;;;12.96;67.24;101568.88;4913952;29;20048;-69
2022/10/17 02:47:24;;;;;;;9.07;5.55;;;;;;;13.05;67.14;101564.41;4916551;29;20476;-70
2022/10/17 02:49:52;;;;;;;9.38;5.40;;;;;;;12.88;67.80;101566.97;4917576;29;20051;-70
2022/10/17 02:52:49;;;;;;;8.38;5.35;;;;;;;13.01;67.68;101563.03;4916674;29;20056;-69
2022/10/17 02:55:20;;;;;;;7.65;4.93;;;;;;;12.96;67.83;101563.50;4918013;29;20126;-69
2022/10/17 02:57:56;;;;;;;8.07;5.60;;;;;;;12.77;68.91;101559.13;4917483;29;20044;-69
2022/10/17 03:00:25;;;;;;;8.40;5.45;;;;;;;12.92;68.69;101561.28;4916953;29;20054;-69
2022/10/17 03:02:52;;;;;;;11.68;5.57;;;;;;;12.91;68.79;101559.59;4916992;29;20048;-69
2022/10/17 03:05:21;;;;;;;9.80;5.65;;;;;;;12.87;68.76;101567.97;4916416;29;20063;-69
2022/10/17 03:07:47;;;;;;;7.00;5.53;;;;;;;12.77;69.79;101559.13;4916535;29;20051;-70
2022/10/17 03:10:14;;;;;;;6.32;5.65;;;;;;;12.91;69.28;101573.06;4916379;29;20048;-70
2022/10/17 03:12:40;;;;;;;6.93;5.40;;;;;;;12.99;69.31;101559.66;4917556;29;20048;-69
2022/10/17 03:15:08;;;;;;;12.00;5.68;;;;;;;12.91;69.69;101565.81;4917468;29;20134;-70
2022/10/17 03:17:35;;;;;;;11.82;5.03;;;;;;;12.88;69.94;101558.88;4917289;29;20420;-70
2022/10/17 03:20:03;;;;;;;8.35;5.32;;;;;;;12.87;70.00;101561.75;4917301;29;20079;-70
2022/10/17 03:22:29;;;;;;;10.73;6.40;;;;;;;12.68;71.75;101562.69;4917148;29;20055;-70
2022/10/17 03:24:57;;;;;;;7.38;5.78;;;;;;;12.69;72.13;101558.16;4917100;29;20079;-70
2022/10/17 03:27:23;;;;;;;9.68;5.55;;;;;;;12.76;71.92;101549.34;4917326;29;20052;-69
2022/10/17 03:29:50;;;;;;;7.10;6.05;;;;;;;12.87;71.70;101540.19;4916558;29;20063;-69
2022/10/17 03:32:16;;;;;;;9.75;5.53;;;;;;;13.05;71.06;101538.31;4916898;29;20055;-69
2022/10/17 03:34:43;;;;;;;6.82;5.93;;;;;;;12.68;72.75;101551.94;4917309;29;20477;-69
2022/10/17 03:37:09;;;;;;;8.40;5.60;;;;;;;12.77;72.12;101555.59;4916480;29;20051;-69
2022/10/17 03:39:36;;;;;;;8.73;5.90;;;;;;;12.78;72.42;101555.44;4916594;29;20453;-69
2022/10/17 03:42:02;;;;;;;11.98;6.22;;;;;;;12.57;73.41;101542.25;4915794;29;20052;-69
2022/10/17 03:44:29;;;;;;;8.52;5.55;;;;;;;12.64;73.33;101546.00;4916411;29;20062;-69
2022/10/17 03:46:56;;;;;;;7.05;5.88;;;;;;;12.71;73.22;101540.84;4916160;29;20424;-68
2022/10/17 03:49:23;;;;;;;6.70;5.53;;;;;;;12.90;72.38;101541.72;4915733;29;20527;-69
2022/10/17 03:51:49;;;;;;;7.15;5.70;;;;;;;12.84;72.10;101540.50;4916374;29;20058;-68
2022/10/17 03:54:15;;;;;;;10.70;6.28;;;;;;;12.88;72.01;101537.34;4917130;29;20535;-70
2022/10/17 03:56:42;;;;;;;8.43;6.03;;;;;;;12.82;72.37;101543.34;4915955;29;20055;-69
2022/10/17 03:59:13;;;;;;;7.78;5.40;;;;;;;12.84;72.52;101544.03;4914686;29;20048;-70
2022/10/17 04:01:40;;;;;;;8.63;6.10;;;;;;;12.82;72.19;101548.72;4909173;29;20405;-70
2022/10/17 04:04:07;;;;;;;10.40;6.15;;;;;;;12.74;73.04;101540.59;4916575;29;20080;-69
2022/10/17 04:06:34;;;;;;;15.52;6.22;;;;;;;12.79;72.77;101534.72;4915498;29;20054;-70
2022/10/17 04:09:01;;;;;;;10.50;5.93;;;;;;;12.81;72.55;101536.28;4911967;29;20529;-70
2022/10/17 04:11:27;;;;;;;7.93;6.32;;;;;;;12.50;73.91;101524.19;4916386;29;20048;-70
2022/10/17 04:13:55;;;;;;;9.60;6.35;;;;;;;12.56;73.91;101526.25;4916416;29;20073;-70
2022/10/17 04:16:22;;;;;;;8.70;6.43;;;;;;;12.47;74.42;101521.78;4915205;29;20413;-70
2022/10/17 04:18:54;;;;;;;10.60;6.57;;;;;;;12.55;73.80;101522.69;4916134;29;20055;-69
2022/10/17 04:21:22;;;;;;;11.82;6.65;;;;;;;12.65;73.48;101519.94;4915333;29;20059;-69
2022/10/17 04:23:56;;;;;;;9.27;6.05;;;;;;;12.43;74.35;101526.63;4916530;29;20048;-69
2022/10/17 04:26:22;;;;;;;9.88;6.70;;;;;;;12.50;74.03;101522.31;4915168;29;20576;-69
2022/10/17 04:28:49;;;;;;;11.82;6.30;;;;;;;12.33;74.72;101525.84;4906951;29;20039;-68
2022/10/17 04:31:17;;;;;;;10.35;6.90;;;;;;;12.38;74.70;101521.72;4916106;29;20052;-69
2022/10/17 04:33:48;;;;;;;11.88;6.93;;;;;;;12.43;74.82;101523.94;4915676;29;20048;-69
2022/10/17 04:36:18;;;;;;;7.55;4.78;;;;;;;12.48;74.25;101518.94;4915452;29;20052;-69
2022/10/17 04:38:45;;;;;;;10.73;6.97;;;;;;;12.32;74.91;101519.63;4915814;29;20481;-70
2022/10/17 04:41:14;;;;;;;10.98;7.60;;;;;;;12.35;74.52;101518.50;4915500;29;20511;-70
2022/10/17 04:43:40;;;;;;;8.57;6.78;;;;;;;12.50;74.29;101516.09;4914521;29;20136;-70
2022/10/17 04:46:13;;;;;;;9.13;7.10;;;;;;;12.54;73.91;101517.47;4915368;29;20068;-70
2022/10/17 04:48:40;;;;;;;10.73;7.20;;;;;;;12.47;74.13;101521.78;4915076;29;20063;-70
2022/10/17 04:51:11;;;;;;;10.43;7.30;;;;;;;12.45;74.05;101524.63;4915431;29;20059;-70
2022/10/17 04:53:39;;;;;;;9.60;7.70;;;;;;;12.06;75.52;101524.88;4915022;29;20051;-69
2022/10/17 04:56:14;;;;;;;11.68;7.55;;;;;;;12.22;75.93;101520.69;4915295;29;20132;-70
2022/10/17 04:58:42;;;;;;;11.70;7.18;;;;;;;12.23;75.26;101515.16;4914839;29;20051;-70
2022/10/17 05:01:13;;;;;;;8.98;7.07;;;;;;;12.01;76.19;101518.28;4914339;29;20052;-69
2022/10/17 05:03:39;;;;;;;14.02;7.20;;;;;;;11.99;76.12;101525.63;4915296;29;20047;-70
2022/10/17 05:06:08;;;;;;;8.75;7.45;;;;;;;12.16;75.52;101524.81;4915076;29;20063;-69
2022/10/17 05:08:35;;;;;;;10.43;7.70;;;;;;;12.28;75.44;101518.25;4906342;29;20060;-68
2022/10/17 05:11:03;;;;;;;8.18;7.32;;;;;;;12.34;74.65;101523.00;4915028;29;20099;-68
2022/10/17 05:13:29;;;;;;;10.07;7.75;;;;;;;12.40;74.34;101532.31;4913811;29;20055;-68
2022/10/17 05:16:00;;;;;;;10.15;7.13;;;;;;;12.27;74.73;101532.66;4913670;29;20519;-68
2022/10/17 05:18:27;;;;;;;20.02;7.90;;;;;;;12.37;74.49;101528.06;4914965;29;20048;-67
2022/10/17 05:20:54;;;;;;;9.82;7.43;;;;;;;12.48;74.08;101528.84;4914994;29;20067;-69
2022/10/17 05:23:21;;;;;;;17.90;7.57;;;;;;;12.48;73.73;101534.22;4914517;29;20444;-68
2022/10/17 05:25:52;;;;;;;12.13;7.60;;;;;;;12.55;73.53;101530.78;4915140;29;20052;-69
2022/10/17 05:28:18;;;;;;;9.93;7.82;;;;;;;12.55;73.62;101529.94;4914424;29;20048;-69
2022/10/17 05:30:45;;;;;;;13.95;7.80;;;;;;;12.52;73.34;101530.22;4914612;29;20047;-69
2022/10/17 05:33:11;;;;;;;13.88;7.97;;;;;;;12.48;73.45;101523.47;4914143;29;20063;-69
2022/10/17 05:35:37;;;;;;;13.40;8.57;;;;;;;12.52;73.77;101523.03;4914867;29;20044;-69
2022/10/17 05:38:04;;;;;;;10.20;8.00;;;;;;;12.56;73.00;101532.47;4913962;29;20048;-68
2022/10/17 05:40:30;;;;;;;16.75;7.38;;;;;;;12.59;72.91;101539.38;4913858;29;20421;-68
2022/10/17 05:42:57;;;;;;;26.80;8.35;;;;;;;12.57;72.95;101533.31;4914519;29;20059;-69
2022/10/17 05:45:23;;;;;;;12.27;7.82;;;;;;;12.56;73.00;101532.47;4914086;29;20527;-67
2022/10/17 05:47:50;;;;;;;7.70;6.85;;;;;;;12.63;72.63;101538.09;4914702;29;20048;-69
2022/10/17 05:50:20;;;;;;;12.73;7.00;;;;;;;12.61;72.54;101540.09;4914358;29;20055;-69
2022/10/17 05:52:46;;;;;;;13.50;7.47;;;;;;;12.49;73.04;101541.34;4913934;29;20058;-69
2022/10/17 05:55:13;;;;;;;10.93;7.60;;;;;;;12.37;73.81;101536.16;4913939;29;20499;-69
2022/10/17 05:57:39;;;;;;;14.13;7.72;;;;;;;12.48;73.30;101543.16;4913975;29;20052;-69
2022/10/17 06:00:06;;;;;;;13.25;7.82;;;;;;;12.68;72.64;101543.84;4913461;29;20055;-69
2022/10/17 06:02:33;;;;;;;8.82;6.90;;;;;;;12.71;72.37;101546.25;4913306;29;20397;-69
2022/10/17 06:04:59;;;;;;;9.88;7.57;;;;;;;12.60;72.36;101546.47;4912165;29;20055;-69
2022/10/17 06:07:26;;;;;;;12.05;7.47;;;;;;;12.39;73.11;101560.22;4912482;29;20051;-68
2022/10/17 06:09:52;;;;;;;11.73;7.20;;;;;;;12.27;74.20;101553.34;4911782;29;20048;-68
2022/10/17 06:12:19;;;;;;;12.57;7.40;;;;;;;12.08;74.94;101557.00;4914027;29;20052;-71
2022/10/17 06:14:45;;;;;;;15.15;9.40;;;;;;;12.15;74.69;101567.03;4913290;29;20048;-72
2022/10/17 06:17:12;;;;;;;11.38;8.02;;;;;;;12.30;74.69;101571.88;4914190;29;22963;-69
2022/10/17 06:19:43;;;;;;;10.02;8.13;;;;;;;11.92;75.96;101569.25;4912998;29;20580;-70
2022/10/17 06:22:09;;;;;;;11.27;7.85;;;;;;;11.98;75.80;101567.81;4912989;29;20414;-70
2022/10/17 06:24:36;;;;;;;9.15;7.07;;;;;;;12.02;76.00;101574.59;4913068;29;20044;-70
2022/10/17 06:27:02;;;;;;;10.82;8.07;;;;;;;12.17;75.48;101575.78;4912975;29;20048;-71
2022/10/17 06:29:34;;;;;;;11.52;7.60;;;;;;;11.78;77.15;101576.97;4913981;29;20091;-71
2022/10/17 06:32:01;;;;;;;13.77;7.88;;;;;;;11.74;76.98;101587.16;4913902;29;20075;-71
2022/10/17 06:34:27;;;;;;;14.43;7.78;;;;;;;12.21;75.91;101581.72;4910671;29;20420;-71
2022/10/17 06:36:54;;;;;;;12.35;6.85;;;;;;;12.10;75.80;101585.44;4914301;29;20064;-71
2022/10/17 06:39:32;;;;;;;18.67;7.20;;;;;;;12.12;75.58;101582.63;4913362;29;20044;-71
2022/10/17 06:41:59;;;;;;;15.73;7.38;;;;;;;12.26;75.69;101584.78;4914058;29;20052;-71
2022/10/17 06:44:30;;;;;;;11.77;7.65;;;;;;;12.24;75.43;101591.31;4914228;29;20048;-71
2022/10/17 06:46:58;;;;;;;11.25;6.93;;;;;;;12.28;74.93;101600.78;4913714;29;20067;-71
2022/10/17 06:49:24;;;;;;;11.93;6.82;;;;;;;12.60;74.26;101594.94;4914418;29;20507;-71
2022/10/17 06:51:51;;;;;;;13.10;7.30;;;;;;;12.22;75.42;101591.47;4913645;29;20051;-70
2022/10/17 06:54:17;;;;;;;13.85;6.90;;;;;;;12.45;74.96;101596.44;4914105;29;20055;-71
2022/10/17 06:56:44;;;;;;;14.63;7.40;;;;;;;12.44;74.51;101594.75;4913945;29;20055;-70
2022/10/17 06:59:10;;;;;;;14.13;7.07;;;;;;;12.35;75.19;101593.81;4913128;29;20056;-69
2022/10/17 07:01:37;;;;;;;10.07;6.78;;;;;;;12.50;75.04;101594.16;4913520;29;20048;-71
2022/10/17 07:04:08;;;;;;;12.70;6.32;;;;;;;12.49;75.04;101596.00;4914288;29;20416;-71
2022/10/17 07:06:35;;;;;;;10.77;6.65;;;;;;;12.52;74.73;101592.13;4912664;29;20499;-70
2022/10/17 07:09:02;;;;;;;10.23;6.53;;;;;;;12.64;74.43;101596.31;4914705;29;20059;-71
2022/10/17 07:11:28;;;;;;;11.55;6.35;;;;;;;12.88;73.28;101601.97;4914176;29;20048;-71
2022/10/17 07:13:55;;;;;;;9.57;5.95;;;;;;;12.93;73.33;101600.66;4914022;29;20070;-71
2022/10/17 07:16:21;;;;;;;16.63;5.55;;;;;;;12.84;73.24;101600.59;4913776;29;20044;-71
2022/10/17 07:18:49;;;;;;;7.63;5.75;;;;;;;13.03;72.72;101614.91;4913284;29;20390;-71
2022/10/17 07:21:16;;;;;;;9.88;6.20;;;;;;;13.06;72.70;101609.19;4913368;29;20149;-70
2022/10/17 07:23:43;;;;;;;8.52;5.30;;;;;;;12.99;72.48;101614.34;4913821;29;20052;-71
2022/10/17 07:26:12;;;;;;;14.23;6.30;;;;;;;13.15;71.79;101613.66;4913728;29;20052;-71
2022/10/17 07:28:41;;;;;;;8.93;5.55;;;;;;;13.10;72.15;101616.81;4913763;29;20070;-70
2022/10/17 07:31:10;;;;;;;9.75;5.57;;;;;;;13.08;71.92;101618.00;4912603;29;20525;-71
2022/10/17 07:33:37;;;;;;;18.40;5.68;;;;;;;13.27;71.24;101620.50;4916939;29;20048;-71
2022/10/17 07:36:04;;;;;;;9.70;4.90;;;;;;;13.41;71.09;101623.63;4916803;29;20048;-70
2022/10/17 07:38:31;;;;;;;11.65;5.18;;;;;;;13.81;69.55;101620.41;4917093;29;20489;-71
2022/10/17 07:41:02;;;;;;;12.63;4.80;;;;;;;13.74;69.34;101616.63;4916798;29;20048;-72
2022/10/17 07:43:29;;;;;;;8.77;4.10;;;;;;;14.04;68.38;101620.69;4917472;29;20057;-71
2022/10/17 07:45:56;;;;;;;9.18;5.20;;;;;;;14.24;67.46;101621.28;4917455;29;20055;-71
2022/10/17 07:48:23;;;;;;;7.22;4.30;;;;;;;14.47;66.76;101610.75;4914968;29;20107;-71
2022/10/17 07:50:50;;;;;;;9.52;4.20;;;;;;;14.33;66.99;101614.09;4916586;29;20074;-71
2022/10/17 07:53:17;;;;;;;6.22;4.07;;;;;;;14.77;65.85;101612.88;4900171;29;20481;-71
2022/10/17 07:55:45;;;;;;;9.50;4.00;;;;;;;15.00;64.99;101617.63;4917115;29;20063;-71
2022/10/17 07:58:12;;;;;;;11.85;4.90;;;;;;;14.88;64.63;101625.22;4915975;29;20047;-69
2022/10/17 08:00:39;;;;;;;11.32;3.92;;;;;;;15.12;64.34;101621.69;4915990;29;20050;-70
2022/10/17 08:03:06;;;;;;;6.65;3.85;;;;;;;15.33;63.50;101612.22;4916409;29;20048;-70
2022/10/17 08:05:33;;;;;;;6.20;4.00;;;;;;;15.75;62.19;101614.75;4917465;29;20044;-71
2022/10/17 08:07:59;;;;;;;13.88;4.15;;;;;;;15.98;61.32;101625.66;4916659;29;20048;-71
2022/10/17 08:10:28;;;;;;;6.38;3.97;;;;;;;15.99;60.95;101621.94;4915995;29;20052;-70
2022/10/17 08:12:55;;;;;;;9.60;3.60;;;;;;;16.34;60.47;101622.50;4915923;29;20055;-71
2022/10/17 08:15:23;;;;;;;7.38;3.33;;;;;;;16.17;60.73;101622.56;4915881;29;20043;-71
2022/10/17 08:17:57;;;;;;;6.28;3.38;;;;;;;16.23;60.05;101625.56;4915503;29;20082;-72
2022/10/17 08:20:23;;;;;;;6.03;3.65;;;;;;;16.81;58.24;101622.41;4916436;29;20071;-71
2022/10/17 08:22:54;;;;;;;4.70;3.15;;;;;;;16.77;58.47;101629.22;4916154;29;20052;-70
2022/10/17 08:25:21;;;;;;;7.88;3.40;;;;;;;17.14;57.30;101625.72;4914703;29;20420;-70
2022/10/17 08:27:47;;;;;;;5.40;3.50;;;;;;;17.03;57.33;101623.47;4915403;29;20070;-71
2022/10/17 08:30:14;;;;;;;6.28;3.40;;;;;;;17.08;57.52;101618.31;4898634;29;20048;-70
2022/10/17 08:32:41;;;;;;;5.13;3.42;;;;;;;17.47;56.76;101614.63;4914655;29;20420;-70
2022/10/17 08:35:08;;;;;;;8.20;3.08;;;;;;;17.92;54.96;101610.06;4915352;29;20044;-69
2022/10/17 08:37:35;;;;;;;8.77;4.57;;;;;;;18.64;53.44;101613.94;4899678;29;20063;-71
2022/10/17 08:40:02;;;;;;;9.30;5.05;;;;;;;18.37;53.57;101610.06;4915153;29;20488;-71
2022/10/17 08:42:49;;;;;;;11.30;3.67;;;;;;;18.36;53.43;101611.94;4914412;29;20048;-71
2022/10/17 08:45:50;;;;;;;13.70;3.92;;;;;;;18.80;52.62;101605.56;4914649;29;20055;-72
2022/10/17 08:48:19;;;;;;;7.05;3.67;;;;;;;19.19;51.43;101607.00;4885428;29;20182;-70
2022/10/17 08:51:07;;;;;;;7.45;3.33;;;;;;;19.60;50.16;101609.00;4914058;29;20416;-71
2022/10/17 08:53:49;;;;;;;6.93;3.10;;;;;;;19.80;49.33;101601.84;4915687;29;20052;-71
2022/10/17 08:56:24;;;;;;;5.93;4.32;;;;;;;19.70;49.81;101609.53;4914880;29;20052;-72
2022/10/17 08:59:13;;;;;;;11.23;3.42;;;;;;;20.14;48.41;101605.56;4914236;29;20056;-71
2022/10/17 09:01:48;;;;;;;7.22;2.95;;;;;;;20.07;48.35;101612.88;4915273;29;20056;-68
2022/10/17 09:04:40;;;;;;;7.53;3.00;;;;;;;20.10;48.10;101609.75;4915707;29;20413;-67
2022/10/17 09:07:25;;;;;;;7.82;2.95;;;;;;;19.75;48.52;101612.47;4915332;29;20044;-68
2022/10/17 09:10:07;;;;;;;7.55;2.88;;;;;;;20.15;48.16;101612.72;4914995;29;20430;-68
2022/10/17 09:13:06;;;;;;;6.15;3.13;;;;;;;20.30;48.12;101618.00;4914907;29;20051;-68
2022/10/17 09:15:43;;;;;;;11.52;3.05;;;;;;;20.14;48.05;101620.06;4915255;29;20052;-68
2022/10/17 09:18:16;;;;;;;9.95;3.63;;;;;;;20.34;47.64;101613.84;4915001;29;20428;-67
2022/10/17 09:20:53;;;;;;;5.50;3.15;;;;;;;20.68;47.04;101618.38;4914687;29;20074;-68
2022/10/17 09:23:22;;;;;;;2.90;2.58;;;;;;;20.51;47.42;101611.63;4913650;29;20052;-69
2022/10/17 09:25:54;;;;;;;4.35;2.90;;;;;;;21.26;45.75;101629.63;4914521;29;20043;-68
2022/10/17 09:28:42;;;;;;;7.45;3.28;;;;;;;20.82;46.35;101621.97;4914513;29;20059;-68
2022/10/17 09:31:19;;;;;;;6.80;3.25;;;;;;;21.42;45.10;101617.44;4913580;29;20044;-66
2022/10/17 09:33:47;;;;;;;7.15;2.67;;;;;;;20.83;46.32;101610.84;4914535;29;20044;-68
2022/10/17 09:36:24;;;;;;;4.75;2.80;;;;;;;20.51;46.89;101611.63;4914821;29;20420;-69
2022/10/17 09:39:03;;;;;;;13.95;3.25;;;;;;;20.93;46.43;101610.47;4914600;29;20059;-69
2022/10/17 09:41:35;;;;;;;7.72;3.10;;;;;;;21.40;45.04;101607.81;4914380;29;20044;-69
2022/10/17 09:44:17;;;;;;;8.48;3.30;;;;;;;21.23;45.59;101607.38;4914784;29;20044;-68
2022/10/17 09:47:25;;;;;;;5.38;3.90;;;;;;;21.31;45.52;101599.81;4913404;29;20047;-71
2022/10/17 09:49:52;;;;;;;9.27;3.17;;;;;;;21.20;45.60;101603.16;4882506;29;20425;-71
2022/10/17 09:52:20;;;;;;;8.27;3.00;;;;;;;21.54;45.06;101606.75;4914120;29;20421;-70
2022/10/17 09:55:00;;;;;;;8.20;3.10;;;;;;;21.45;45.37;101602.53;4914190;29;20059;-70
2022/10/17 09:57:27;;;;;;;8.13;3.17;;;;;;;21.42;45.15;101600.22;4913866;29;20397;-70
2022/10/17 10:00:05;;;;;;;6.35;2.30;;;;;;;22.58;42.92;101605.00;4914140;29;20095;-69
2022/10/17 10:02:35;;;;;;;9.38;2.65;;;;;;;22.61;42.45;101599.91;4914460;29;20056;-69
2022/10/17 10:05:19;;;;;;;14.23;3.03;;;;;;;22.37;42.91;101596.00;4913585;29;20071;-71
2022/10/17 10:08:04;;;;;;;6.03;2.80;;;;;;;22.59;42.50;101592.97;4913065;29;20064;-72
2022/10/17 10:10:31;;;;;;;9.63;3.38;;;;;;;21.67;44.16;101595.81;4905128;29;20461;-72
2022/10/17 10:13:13;;;;;;;13.20;4.88;;;;;;;21.83;43.83;101603.53;4912896;29;20059;-71
2022/10/17 10:15:42;;;;;;;5.50;2.70;;;;;;;22.02;43.21;101603.72;4913362;29;20512;-69
2022/10/17 10:18:24;;;;;;;8.60;3.17;;;;;;;21.96;43.57;101599.13;4904337;29;20052;-70
2022/10/17 10:21:21;;;;;;;12.75;3.13;;;;;;;21.67;44.44;101603.13;4913306;29;20072;-70
2022/10/17 10:24:09;;;;;;;7.00;4.07;;;;;;;21.59;44.79;101596.00;4894583;29;20055;-71
2022/10/17 10:26:41;;;;;;;11.30;4.28;;;;;;;20.57;46.68;101591.72;4913594;29;20059;-70
2022/10/17 10:29:29;;;;;;;21.65;8.35;;;;;;;21.19;45.89;101603.41;4913844;29;20044;-70
2022/10/17 10:32:24;;;;;;;10.50;2.88;;;;;;;21.30;45.25;101597.31;4914183;29;20059;-70
2022/10/17 10:35:15;;;;;;;13.55;2.95;;;;;;;21.68;44.14;101593.91;4912710;29;20051;-71
2022/10/17 10:37:44;;;;;;;4.80;2.78;;;;;;;21.53;44.64;101594.97;4912476;29;20044;-72
2022/10/17 10:40:21;;;;;;;6.05;2.25;;;;;;;22.29;42.54;101593.50;4913591;29;20504;-69
2022/10/17 10:42:50;;;;;;;10.23;2.85;;;;;;;22.69;41.26;101596.91;4913337;29;20044;-71
2022/10/17 10:45:38;;;;;;;7.13;3.28;;;;;;;22.37;42.21;101597.91;4913989;29;20052;-69
2022/10/17 10:48:35;;;;;;;6.95;3.13;;;;;;;22.38;41.95;101592.22;4913487;29;20048;-71
2022/10/17 10:51:12;;;;;;;9.70;2.95;;;;;;;22.27;42.22;101587.44;4913488;29;20432;-69
2022/10/17 10:54:00;;;;;;;4.97;2.65;;;;;;;22.04;42.39;101591.50;4887954;29;20059;-71
2022/10/17 10:56:36;;;;;;;8.00;3.88;;;;;;;22.23;42.75;101581.56;4912364;29;20040;-72
2022/10/17 10:59:05;;;;;;;14.68;5.55;;;;;;;22.09;42.66;101574.47;4912333;29;20056;-69
2022/10/17 11:01:53;;;;;;;11.80;5.93;;;;;;;22.28;42.43;101569.97;4913267;29;20048;-72
2022/10/17 11:04:28;;;;;;;7.80;2.90;;;;;;;22.97;41.20;101571.03;4912883;29;20055;-71
2022/10/17 11:07:02;;;;;;;9.57;2.55;;;;;;;22.69;40.81;101579.66;4913940;29;20139;-71
2022/10/17 11:09:46;;;;;;;11.98;4.95;;;;;;;22.30;42.20;101582.38;4916722;29;20048;-70
2022/10/17 11:12:37;;;;;;;10.93;2.38;;;;;;;22.89;40.68;101579.53;4916650;29;20040;-65
2022/10/17 11:15:26;;;;;;;10.85;4.78;;;;;;;22.54;42.03;101566.31;4917027;29;20051;-69
2022/10/17 11:18:03;;;;;;;9.52;2.80;;;;;;;23.53;39.30;101561.94;4916460;29;20044;-70
2022/10/17 11:20:52;;;;;;;9.43;2.75;;;;;;;23.15;40.17;101571.13;4916336;29;20408;-72
2022/10/17 11:23:33;;;;;;;7.13;3.22;;;;;;;22.71;41.50;101559.25;4901692;29;20044;-71
2022/10/17 11:26:04;;;;;;;5.43;2.83;;;;;;;23.18;40.14;101561.63;4916997;29;20059;-72
2022/10/17 11:28:30;;;;;;;;;;;;;;;23.35;39.53;101564.66;4906620;29;20463;-70
2022/10/17 11:31:05;;;;;;;11.45;3.75;;;;;;;22.78;40.66;101561.94;4915813;29;19981;-71
2022/10/17 11:33:36;;;;;;;7.28;3.05;;;;;;;22.85;40.46;101560.00;4916732;29;20056;-69
2022/10/17 11:36:05;;;;;;;10.52;2.88;;;;;;;23.06;40.28;101557.94;4916456;29;20424;-72
2022/10/17 11:38:50;;;;;;;7.15;3.92;;;;;;;22.97;39.89;101569.16;4917125;29;20545;-72
2022/10/17 11:41:28;;;;;;;7.38;3.03;;;;;;;22.88;40.21;101566.91;4916677;29;20051;-69
2022/10/17 11:44:37;;;;;;;10.32;3.55;;;;;;;23.20;39.80;101568.56;4916461;29;20413;-71